createdAt,value
2019-04-22T00:01:23.378Z,9.87
2019-04-22T00:03:56.779Z,10.30
2019-04-22T00:06:45.991Z,10.80
2019-04-22T00:09:17.717Z,10.33
2019-04-22T00:11:48.566Z,9.60
2019-04-22T00:14:14.962Z,10.60
2019-04-22T00:17:07.007Z,10.17
2019-04-22T00:19:36.068Z,11.10
2019-04-22T00:21:55.682Z,10.97
2019-04-22T00:24:17.120Z,11.33
2019-04-22T00:26:50.234Z,10.50
2019-04-22T00:29:42.463Z,10.97
2019-04-22T00:32:04.982Z,9.80
2019-04-22T00:34:34.168Z,9.23
2019-04-22T00:37:11.355Z,10.20
2019-04-22T00:39:44.741Z,10.53
2019-04-22T00:42:16.408Z,9.70
2019-04-22T00:44:46.964Z,9.97
2019-04-22T00:47:16.416Z,10.23
2019-04-22T00:52:15.509Z,10.87
2019-04-22T00:54:55.934Z,10.50
2019-04-22T00:57:15.746Z,9.83
2019-04-22T00:59:48.482Z,10.47
2019-04-22T01:02:24.540Z,11.40
2019-04-22T01:05:04.024Z,10.83
2019-04-22T01:07:18.347Z,11.80
2019-04-22T01:09:56.553Z,11.43
2019-04-22T01:12:24.724Z,11.80
2019-04-22T01:14:49.502Z,12.43
2019-04-22T01:17:19.701Z,11.37
2019-04-22T01:19:58.625Z,12.03
2019-04-22T01:22:22.371Z,12.90
2019-04-22T01:24:50.149Z,11.97
2019-04-22T01:27:17.448Z,14.10
2019-04-22T01:29:41.208Z,12.43
2019-04-22T01:32:00.821Z,12.27
2019-04-22T01:34:48.816Z,12.40
2019-04-22T01:37:20.346Z,12.00
2019-04-22T01:39:57.516Z,12.57
2019-04-22T01:42:32.740Z,11.80
2019-04-22T01:44:56.716Z,12.00
2019-04-22T01:47:31.334Z,12.67
2019-04-22T01:49:59.876Z,13.50
2019-04-22T01:52:29.145Z,14.07
2019-04-22T01:55:29.461Z,14.30
2019-04-22T01:57:47.795Z,13.30
2019-04-22T02:00:18.989Z,13.93
2019-04-22T02:03:02.456Z,13.87
2019-04-22T02:05:22.824Z,14.03
2019-04-22T02:08:02.496Z,14.87
2019-04-22T02:10:33.076Z,15.83
2019-04-22T02:12:53.545Z,15.67
2019-04-22T02:15:23.433Z,14.37
2019-04-22T02:18:01.341Z,15.27
2019-04-22T02:20:25.340Z,13.97
2019-04-22T02:23:40.371Z,14.40
2019-04-22T02:28:25.661Z,14.40
2019-04-22T02:31:16.915Z,15.33
2019-04-22T02:38:44.559Z,15.00
2019-04-22T02:41:21.058Z,16.50
2019-04-22T02:48:48.253Z,16.53
2019-04-22T02:51:06.064Z,16.23
2019-04-22T02:54:00.537Z,16.40
2019-04-22T02:56:13.465Z,16.10
2019-04-22T02:58:52.314Z,16.37
2019-04-22T03:06:16.486Z,14.53
2019-04-22T03:08:41.702Z,15.00
2019-04-22T03:11:12.585Z,15.13
2019-04-22T03:13:47.176Z,16.63
2019-04-22T03:28:51.295Z,15.80
2019-04-22T03:35:14.139Z,16.23
2019-04-22T03:39:38.138Z,16.70
2019-04-22T03:44:31.261Z,16.57
2019-04-22T03:49:39.223Z,17.90
2019-04-22T04:02:08.221Z,17.73
2019-04-22T04:04:35.988Z,16.90
2019-04-22T04:07:11.220Z,18.00
2019-04-22T04:12:03.724Z,19.30
2019-04-22T04:14:37.803Z,18.27
2019-04-22T04:17:26.242Z,18.23
2019-04-22T04:19:34.757Z,16.83
2019-04-22T04:22:19.459Z,18.73
2019-04-22T04:30:02.583Z,18.50
2019-04-22T04:35:05.392Z,18.53
2019-04-22T04:37:38.908Z,18.07
2019-04-22T04:39:55.503Z,17.87
2019-04-22T04:42:25.408Z,20.50
2019-04-22T04:44:58.894Z,19.07
2019-04-22T04:47:33.291Z,19.90
2019-04-22T04:54:56.971Z,19.47
2019-04-22T04:57:31.989Z,20.00
2019-04-22T05:00:11.210Z,19.17
2019-04-22T05:02:24.245Z,18.70
2019-04-22T05:09:57.339Z,19.50
2019-04-22T05:14:48.976Z,64.30
2019-04-22T05:17:31.465Z,30.03
2019-04-22T05:19:50.239Z,53.90
2019-04-22T05:22:30.672Z,50.43
2019-04-22T05:24:58.228Z,34.77
2019-04-22T05:27:29.659Z,29.97
2019-04-22T05:30:10.656Z,26.53
2019-04-22T05:32:24.680Z,24.93
2019-04-22T05:34:55.736Z,23.70
2019-04-22T05:37:27.602Z,22.77
2019-04-22T05:39:56.356Z,23.90
2019-04-22T05:42:22.874Z,24.27
2019-04-22T05:45:00.843Z,23.13
2019-04-22T05:47:25.689Z,24.43
2019-04-22T05:49:55.471Z,24.00
2019-04-22T05:52:25.217Z,23.97
2019-04-22T05:55:02.869Z,23.70
2019-04-22T05:57:45.737Z,23.20
2019-04-22T06:00:06.585Z,23.97
2019-04-22T06:05:03.771Z,24.90
2019-04-22T06:07:32.239Z,24.60
2019-04-22T06:10:11.633Z,24.97
2019-04-22T06:12:26.453Z,25.17
2019-04-22T06:15:08.238Z,24.37
2019-04-22T06:17:38.951Z,60.17
2019-04-22T06:20:09.450Z,71.13
2019-04-22T06:22:48.567Z,41.77
2019-04-22T06:25:14.809Z,33.83
2019-04-22T06:27:42.986Z,33.37
2019-04-22T06:30:17.301Z,30.00
2019-04-22T06:32:40.235Z,27.27
2019-04-22T06:35:16.661Z,27.80
2019-04-22T06:37:57.485Z,26.17
2019-04-22T06:40:14.578Z,27.13
2019-04-22T06:42:42.436Z,27.27
2019-04-22T06:45:18.792Z,27.17
2019-04-22T06:50:19.981Z,27.17
2019-04-22T06:52:50.272Z,27.13
2019-04-22T06:55:16.490Z,27.57
2019-04-22T06:57:49.478Z,27.67
2019-04-22T07:00:23.045Z,28.43
2019-04-22T07:03:10.964Z,29.47
2019-04-22T07:05:25.104Z,28.90
2019-04-22T07:07:57.135Z,26.70
2019-04-22T07:10:30.155Z,28.33
2019-04-22T07:12:48.736Z,25.00
2019-04-22T07:15:40.205Z,25.77
2019-04-22T07:17:55.137Z,26.20
2019-04-22T07:20:24.193Z,26.97
2019-04-22T07:22:51.322Z,27.93
2019-04-22T07:25:23.503Z,26.47
2019-04-22T07:27:54.740Z,24.80
2019-04-22T07:30:26.173Z,24.93
2019-04-22T07:33:11.463Z,25.40
2019-04-22T07:35:30.459Z,25.30
2019-04-22T07:37:54.283Z,24.83
2019-04-22T07:40:34.191Z,23.40
2019-04-22T07:42:59.212Z,23.40
2019-04-22T07:45:29.618Z,22.97
2019-04-22T07:48:13.061Z,23.80
2019-04-22T07:50:42.821Z,23.03
2019-04-22T07:52:58.583Z,21.80
2019-04-22T07:55:32.479Z,23.23
2019-04-22T07:58:05.055Z,21.07
2019-04-22T08:00:34.379Z,22.50
2019-04-22T08:03:07.696Z,22.10
2019-04-22T08:05:47.705Z,22.07
2019-04-22T08:08:16.018Z,21.30
2019-04-22T08:13:05.185Z,21.87
2019-04-22T08:15:40.110Z,21.57
2019-04-22T08:18:16.352Z,21.30
2019-04-22T08:20:41.525Z,20.30
2019-04-22T08:23:12.226Z,19.77
2019-04-22T08:25:38.862Z,20.50
2019-04-22T08:28:13.390Z,19.57
2019-04-22T08:33:15.856Z,20.53
2019-04-22T08:36:01.592Z,19.93
2019-04-22T08:38:11.635Z,20.87
2019-04-22T08:40:47.306Z,20.67
2019-04-22T08:43:27.012Z,19.67
2019-04-22T08:45:51.104Z,19.27
2019-04-22T08:48:16.444Z,18.37
2019-04-22T08:50:58.424Z,18.93
2019-04-22T08:53:26.478Z,18.87
2019-04-22T08:55:56.752Z,18.80
2019-04-22T08:58:27.377Z,18.83
2019-04-22T09:01:02.276Z,17.40
2019-04-22T09:03:27.574Z,17.33
2019-04-22T09:08:32.435Z,16.60
2019-04-22T09:10:57.418Z,15.17
2019-04-22T09:13:31.510Z,15.27
2019-04-22T09:15:55.562Z,15.27
2019-04-22T09:18:32.953Z,15.57
2019-04-22T09:21:08.914Z,13.90
2019-04-22T09:23:32.201Z,14.60
2019-04-22T09:25:53.175Z,13.00
2019-04-22T09:28:32.779Z,13.93
2019-04-22T09:31:01.935Z,13.23
2019-04-22T09:33:31.910Z,13.67
2019-04-22T09:36:12.926Z,13.00
2019-04-22T09:41:08.824Z,14.13
2019-04-22T09:43:41.105Z,13.47
2019-04-22T09:46:25.079Z,13.50
2019-04-22T09:48:40.657Z,14.37
2019-04-22T09:51:05.611Z,13.67
2019-04-22T09:53:39.615Z,13.53
2019-04-22T09:56:12.218Z,13.43
2019-04-22T09:58:40.117Z,12.57
2019-04-22T10:01:18.768Z,12.90
2019-04-22T10:03:48.181Z,13.13
2019-04-22T10:06:16.655Z,13.20
2019-04-22T10:08:54.213Z,13.87
2019-04-22T10:11:21.091Z,13.27
2019-04-22T10:13:47.995Z,12.73
2019-04-22T10:16:20.964Z,12.67
2019-04-22T10:18:46.050Z,14.53
2019-04-22T10:21:14.495Z,13.30
2019-04-22T10:23:48.000Z,12.77
2019-04-22T10:26:21.561Z,12.77
2019-04-22T10:28:54.520Z,12.27
2019-04-22T10:31:29.404Z,11.97
2019-04-22T10:33:40.870Z,11.87
2019-04-22T10:35:55.331Z,11.73
2019-04-22T10:38:24.420Z,12.23
2019-04-22T10:40:54.555Z,12.03
2019-04-22T10:43:23.651Z,11.83
2019-04-22T10:45:52.661Z,11.70
2019-04-22T10:48:21.943Z,9.90
2019-04-22T10:50:52.570Z,10.63
2019-04-22T10:53:21.809Z,10.53
2019-04-22T10:55:51.621Z,10.90
2019-04-22T10:58:21.055Z,10.07
2019-04-22T11:00:52.274Z,9.73
2019-04-22T11:03:22.494Z,9.87
2019-04-22T11:05:52.522Z,9.03
2019-04-22T11:08:31.528Z,9.03
2019-04-22T11:11:07.096Z,8.97
2019-04-22T11:13:24.302Z,8.60
2019-04-22T11:15:53.223Z,8.80
2019-04-22T11:18:23.246Z,7.23
2019-04-22T11:20:53.510Z,7.27
2019-04-22T11:23:22.687Z,7.30
2019-04-22T11:25:51.993Z,5.33
2019-04-22T11:28:20.991Z,5.27
2019-04-22T11:30:50.199Z,5.97
2019-04-22T11:33:20.448Z,6.00
2019-04-22T11:35:50.087Z,5.67
2019-04-22T11:38:19.371Z,5.43
2019-04-22T11:40:52.480Z,5.20
2019-04-22T11:43:19.925Z,4.47
2019-04-22T11:45:49.330Z,4.63
2019-04-22T11:48:19.530Z,4.97
2019-04-22T11:50:48.571Z,4.70
2019-04-22T11:53:18.547Z,4.20
2019-04-22T11:55:48.947Z,4.47
2019-04-22T11:58:18.971Z,4.62
2019-04-22T12:00:49.401Z,4.30
2019-04-22T12:03:21.037Z,4.50
2019-04-22T12:05:50.029Z,5.08
2019-04-22T12:08:18.963Z,4.45
2019-04-22T12:10:54.189Z,4.90
2019-04-22T12:13:19.836Z,4.58
2019-04-22T12:15:49.154Z,4.35
2019-04-22T12:18:19.521Z,4.55
2019-04-22T12:20:48.491Z,3.72
2019-04-22T12:23:18.874Z,4.95
2019-04-22T12:25:54.564Z,4.42
2019-04-22T12:28:19.146Z,4.30
2019-04-22T12:30:48.204Z,4.25
2019-04-22T12:33:17.226Z,4.70
2019-04-22T12:35:46.477Z,4.65
2019-04-22T12:38:17.039Z,4.40
2019-04-22T12:40:53.394Z,4.62
2019-04-22T12:43:20.279Z,4.95
2019-04-22T12:45:48.356Z,4.62
2019-04-22T12:48:19.278Z,4.22
2019-04-22T12:50:50.599Z,4.42
2019-04-22T12:53:23.547Z,5.03
2019-04-22T12:55:50.314Z,5.17
2019-04-22T12:58:20.043Z,4.85
2019-04-22T13:00:50.849Z,5.00
2019-04-22T13:03:20.370Z,5.28
2019-04-22T13:05:49.567Z,5.53
2019-04-22T13:08:19.892Z,4.75
2019-04-22T13:10:55.556Z,4.65
2019-04-22T13:13:20.802Z,4.62
2019-04-22T13:15:51.061Z,4.55
2019-04-22T13:18:29.346Z,4.90
2019-04-22T13:20:50.751Z,5.25
2019-04-22T13:23:19.942Z,5.17
2019-04-22T13:25:49.202Z,5.45
2019-04-22T13:28:19.077Z,5.55
2019-04-22T13:30:48.638Z,5.80
2019-04-22T13:33:19.024Z,5.10
2019-04-22T13:35:48.134Z,4.28
2019-04-22T13:38:17.357Z,4.97
2019-04-22T13:41:00.868Z,5.30
2019-04-22T13:43:17.051Z,4.60
2019-04-22T13:45:45.944Z,4.97
2019-04-22T13:48:35.884Z,5.53
2019-04-22T13:51:15.079Z,5.78
2019-04-22T13:56:10.108Z,5.00
2019-04-22T13:58:34.262Z,5.15
2019-04-22T14:00:49.444Z,4.60
2019-04-22T14:03:49.868Z,4.62
2019-04-22T14:06:18.872Z,5.50
2019-04-22T14:08:49.396Z,5.05
2019-04-22T14:11:28.666Z,5.35
2019-04-22T14:13:50.209Z,5.50
2019-04-22T14:16:19.546Z,5.78
2019-04-22T14:18:49.768Z,5.17
2019-04-22T14:21:18.890Z,4.78
2019-04-22T14:23:48.730Z,5.30
2019-04-22T14:26:19.669Z,4.97
2019-04-22T14:28:49.938Z,5.28
2019-04-22T14:31:20.356Z,5.62
2019-04-22T14:33:53.623Z,5.47
2019-04-22T14:36:21.662Z,5.00
2019-04-22T14:38:52.216Z,5.40
2019-04-22T14:41:35.892Z,5.15
2019-04-22T14:44:56.637Z,4.87
2019-04-22T14:46:49.291Z,5.05
2019-04-22T14:49:16.629Z,4.35
2019-04-22T14:51:48.897Z,5.10
2019-04-22T14:54:12.758Z,4.45
2019-04-22T14:56:26.564Z,4.33
2019-04-22T14:58:56.569Z,4.80
2019-04-22T15:01:26.686Z,4.40
2019-04-22T15:03:56.548Z,4.58
2019-04-22T15:06:26.389Z,4.47
2019-04-22T15:08:57.991Z,4.50
2019-04-22T15:11:26.818Z,3.83
2019-04-22T15:13:57.012Z,4.78
2019-04-22T15:17:00.786Z,3.90
2019-04-22T15:19:49.668Z,3.60
2019-04-22T15:22:18.826Z,4.15
2019-04-22T15:24:47.762Z,4.22
2019-04-22T15:27:16.656Z,4.08
2019-04-22T15:29:45.659Z,3.98
2019-04-22T15:32:15.689Z,3.95
2019-04-22T15:34:44.892Z,3.80
2019-04-22T15:37:14.047Z,3.62
2019-04-22T15:39:43.716Z,4.12
2019-04-22T15:42:20.767Z,5.12
2019-04-22T15:44:44.195Z,6.42
2019-04-22T15:47:13.380Z,5.17
2019-04-22T15:49:42.372Z,4.70
2019-04-22T15:52:12.565Z,4.35
2019-04-22T15:54:41.748Z,5.00
2019-04-22T15:57:10.890Z,4.22
2019-04-22T15:59:59.302Z,4.28
2019-04-22T16:02:14.004Z,4.00
2019-04-22T16:04:44.321Z,5.50
2019-04-22T16:07:14.823Z,4.47
2019-04-22T16:09:43.898Z,4.00
2019-04-22T16:12:21.579Z,3.75
2019-04-22T16:14:47.881Z,3.90
2019-04-22T16:17:14.788Z,3.70
2019-04-22T16:19:45.154Z,4.50
2019-04-22T16:22:18.804Z,4.58
2019-04-22T16:25:07.280Z,12.95
2019-04-22T16:27:36.414Z,20.60
2019-04-22T16:30:05.722Z,8.50
2019-04-22T16:32:34.727Z,8.80
2019-04-22T16:35:06.326Z,7.08
2019-04-22T16:37:36.862Z,4.87
2019-04-22T16:40:07.236Z,4.72
2019-04-22T16:42:43.890Z,4.20
2019-04-22T16:45:09.482Z,4.30
2019-04-22T16:47:39.648Z,4.20
2019-04-22T16:50:09.945Z,4.00
2019-04-22T16:52:39.850Z,4.08
2019-04-22T16:55:08.910Z,3.75
2019-04-22T16:57:37.881Z,3.90
2019-04-22T17:00:08.893Z,4.20
2019-04-22T17:02:52.200Z,4.50
2019-04-22T17:05:47.491Z,3.98
2019-04-22T17:08:16.656Z,3.77
2019-04-22T17:10:46.055Z,3.50
2019-04-22T17:13:20.929Z,3.33
2019-04-22T17:15:47.187Z,3.47
2019-04-22T17:18:17.216Z,3.13
2019-04-22T17:20:46.541Z,3.73
2019-04-22T17:23:17.789Z,3.37
2019-04-22T17:25:48.215Z,3.17
2019-04-22T17:28:17.494Z,3.70
2019-04-22T17:30:49.782Z,3.53
2019-04-22T17:33:18.928Z,3.10
2019-04-22T17:35:50.204Z,3.27
2019-04-22T17:38:28.489Z,3.40
2019-04-22T17:41:05.778Z,3.47
2019-04-22T17:43:49.225Z,3.37
2019-04-22T17:46:15.132Z,2.97
2019-04-22T17:48:58.927Z,2.77
2019-04-22T17:56:30.906Z,2.67
2019-04-22T17:59:18.691Z,3.23
2019-04-22T18:01:29.247Z,2.67
2019-04-22T18:03:49.190Z,5.37
2019-04-22T18:06:39.228Z,7.63
2019-04-22T18:09:02.174Z,10.53
2019-04-22T18:11:44.634Z,5.97
2019-04-22T18:14:28.573Z,3.90
2019-04-22T18:16:40.323Z,3.57
2019-04-22T18:19:13.615Z,3.57
2019-04-22T18:21:38.842Z,3.10
2019-04-22T18:24:01.307Z,3.00
2019-04-22T18:26:43.295Z,2.93
2019-04-22T18:29:11.583Z,3.17
2019-04-22T18:31:32.987Z,2.80
2019-04-22T18:34:08.776Z,2.50
2019-04-22T18:36:40.562Z,2.47
2019-04-22T18:39:20.644Z,2.53
2019-04-22T18:41:46.741Z,2.33
2019-04-22T18:44:19.895Z,2.60
2019-04-22T18:46:59.520Z,2.30
2019-04-22T18:49:29.555Z,2.03
2019-04-22T18:52:04.582Z,2.10
2019-04-22T18:54:55.266Z,2.63
2019-04-22T18:57:26.034Z,2.10
2019-04-22T18:59:43.250Z,2.20
2019-04-22T19:02:13.980Z,2.00
2019-04-22T19:04:50.377Z,2.00
2019-04-22T19:07:36.793Z,2.43
2019-04-22T19:10:10.230Z,2.10
2019-04-22T19:15:08.268Z,2.20
2019-04-22T19:17:51.077Z,1.80
2019-04-22T19:20:09.417Z,1.93
2019-04-22T19:22:49.204Z,1.90
2019-04-22T19:25:01.323Z,2.00
2019-04-22T19:27:36.020Z,1.70
2019-04-22T19:30:10.738Z,1.70
2019-04-22T19:32:38.392Z,1.60
2019-04-22T19:35:09.805Z,1.57
2019-04-22T19:37:39.779Z,1.83
2019-04-22T19:40:19.519Z,2.27
2019-04-22T19:45:10.702Z,1.67
2019-04-22T19:47:41.978Z,1.80
2019-04-22T19:50:16.507Z,1.90
2019-04-22T19:52:44.690Z,82.90
2019-04-22T19:55:21.387Z,174.10
2019-04-22T19:57:45.734Z,39.67
2019-04-22T20:00:14.686Z,15.43
2019-04-22T20:03:07.256Z,7.67
2019-04-22T20:05:50.894Z,4.80
2019-04-22T20:08:21.511Z,2.90
2019-04-22T20:10:51.867Z,1.97
2019-04-22T20:13:24.308Z,1.90
2019-04-22T20:15:44.610Z,2.10
2019-04-22T20:18:35.761Z,2.23
2019-04-22T20:20:58.521Z,2.40
2019-04-22T20:23:18.256Z,2.20
2019-04-22T20:25:48.080Z,2.20
2019-04-22T20:28:29.106Z,3.20
2019-04-22T20:30:55.941Z,2.77
2019-04-22T20:33:29.113Z,4.10
2019-04-22T20:36:01.493Z,2.60
2019-04-22T20:38:26.206Z,2.90
2019-04-22T20:40:57.515Z,3.23
2019-04-22T20:43:36.826Z,2.63
2019-04-22T20:46:05.846Z,3.37
2019-04-22T20:48:30.686Z,3.23
2019-04-22T20:51:09.551Z,3.20
2019-04-22T20:53:36.476Z,42.83
2019-04-22T20:56:05.613Z,21.17
2019-04-22T20:58:34.134Z,31.27
2019-04-22T21:00:57.333Z,15.50
2019-04-22T21:03:26.182Z,8.47
2019-04-22T21:05:56.375Z,5.77
2019-04-22T21:08:35.094Z,4.83
2019-04-22T21:11:04.380Z,4.30
2019-04-22T21:13:33.029Z,3.83
2019-04-22T21:16:18.348Z,3.13
2019-04-22T21:18:37.926Z,3.30
2019-04-22T21:21:20.461Z,3.07
2019-04-22T21:23:44.964Z,2.87
2019-04-22T21:26:19.429Z,3.00
2019-04-22T21:28:49.042Z,3.00
2019-04-22T21:31:25.090Z,2.90
2019-04-22T21:33:52.856Z,3.27
2019-04-22T21:36:24.991Z,2.93
2019-04-22T21:38:50.341Z,2.77
2019-04-22T21:41:23.215Z,3.00
2019-04-22T21:43:52.637Z,3.27
2019-04-22T21:46:22.991Z,2.63
2019-04-22T21:48:57.798Z,3.00
2019-04-22T21:51:34.849Z,2.87
2019-04-22T21:54:04.069Z,2.87
2019-04-22T21:56:56.954Z,2.83
2019-04-22T21:59:11.093Z,2.40
2019-04-22T22:01:53.971Z,2.23
2019-04-22T22:04:22.941Z,2.93
2019-04-22T22:06:41.287Z,2.50
2019-04-22T22:09:22.882Z,2.40
2019-04-22T22:11:49.511Z,2.10
2019-04-22T22:14:18.074Z,2.80
2019-04-22T22:16:42.632Z,2.23
2019-04-22T22:19:25.435Z,2.10
2019-04-22T22:21:58.053Z,2.20
2019-04-22T22:24:27.458Z,2.27
2019-04-22T22:26:55.597Z,2.00
2019-04-22T22:29:38.232Z,2.43
2019-04-22T22:32:02.839Z,1.80
2019-04-22T22:34:39.197Z,2.07
2019-04-22T22:36:50.775Z,2.63
2019-04-22T22:39:21.818Z,2.30
2019-04-22T22:41:39.894Z,2.77
2019-04-22T22:44:18.546Z,2.20
2019-04-22T22:46:56.289Z,1.97
2019-04-22T22:49:35.796Z,2.40
2019-04-22T22:52:24.853Z,2.07
2019-04-22T22:54:37.409Z,2.20
2019-04-22T22:57:08.762Z,2.20
2019-04-22T22:59:32.882Z,2.10
2019-04-22T23:02:00.214Z,2.07
2019-04-22T23:04:40.569Z,2.17
2019-04-22T23:07:11.452Z,2.00
2019-04-22T23:09:36.601Z,2.90
2019-04-22T23:12:16.732Z,2.10
2019-04-22T23:14:37.156Z,1.90
2019-04-22T23:16:53.804Z,2.07
2019-04-22T23:19:17.937Z,2.07
2019-04-22T23:21:51.957Z,2.20
2019-04-22T23:24:58.503Z,1.70
2019-04-22T23:27:26.194Z,2.10
2019-04-22T23:30:02.465Z,2.33
2019-04-22T23:32:31.981Z,2.03
2019-04-22T23:35:18.049Z,2.20
2019-04-22T23:37:49.951Z,1.93
2019-04-22T23:40:32.670Z,2.00
2019-04-22T23:43:00.102Z,1.90
2019-04-22T23:45:28.512Z,2.10
2019-04-22T23:47:46.106Z,1.80
2019-04-22T23:50:26.465Z,1.90
2019-04-22T23:53:02.249Z,1.70
2019-04-22T23:55:33.961Z,1.87
2019-04-22T23:58:05.073Z,1.90
